Time;durP1;ratioP1;P1;durP2;ratioP2;P2;SDS_P1;SDS_P2;PMS_P1;PMS_P2;Temp;Humidity;BMP_temperature;BMP_pressure;BME280_temperature;BME280_humidity;BME280_pressure;Samples;Min_cycle;Max_cycle;Signal;HPM_P1;HPM_P2
2021/01/01 00:01:41;;;;;;;118.37;54.53;;;;;;;4.15;59.41;99046.25;4356449;32;20405;-93
2021/01/01 00:04:06;;;;;;;90.60;45.80;;;;;;;3.95;59.40;99047.44;4368989;32;20128;-93
2021/01/01 00:06:36;;;;;;;59.65;35.58;;;;;;;3.97;59.41;99055.97;4356519;32;20135;-93
2021/01/01 00:09:02;;;;;;;44.33;24.33;;;;;;;4.14;59.41;99047.13;4380589;32;20110;-92
2021/01/01 00:11:27;;;;;;;40.80;24.37;;;;;;;4.16;59.41;99047.94;4356745;32;20095;-93
2021/01/01 00:13:53;;;;;;;45.03;25.15;;;;;;;4.00;59.40;99053.34;4357278;32;20113;-93
2021/01/01 00:16:18;;;;;;;47.13;23.52;;;;;;;4.12;59.42;99064.34;4357398;32;20156;-93
2021/01/01 00:18:43;;;;;;;46.83;25.08;;;;;;;4.11;59.41;99065.22;4368896;32;20138;-93
2021/01/01 00:21:09;;;;;;;47.62;25.88;;;;;;;4.00;59.41;99061.06;4368904;32;20142;-93
2021/01/01 00:23:37;;;;;;;44.60;24.15;;;;;;;4.10;59.41;99066.09;4356063;32;20745;-92
2021/01/01 00:26:08;;;;;;;50.55;25.75;;;;;;;4.10;59.41;99064.37;4356931;32;20434;-92
2021/01/01 00:28:34;;;;;;;54.22;29.02;;;;;;;4.06;59.41;99067.03;4357231;32;20098;-92
2021/01/01 00:30:59;;;;;;;51.92;27.50;;;;;;;4.05;59.41;99068.75;4356557;32;20482;-93
2021/01/01 00:33:24;;;;;;;50.92;28.05;;;;;;;3.92;59.40;99070.66;4367904;32;20118;-92
2021/01/01 00:35:50;;;;;;;51.37;29.33;;;;;;;4.03;59.40;99072.22;4367850;32;27628;-92
2021/01/01 00:38:15;;;;;;;53.13;27.62;;;;;;;3.94;59.40;99073.22;4368285;32;27351;-92
2021/01/01 00:40:41;;;;;;;49.75;26.87;;;;;;;3.97;59.40;99075.72;4356475;32;20122;-92
2021/01/01 00:43:07;;;;;;;51.42;25.85;;;;;;;4.00;59.40;99075.69;4368827;32;25585;-92
2021/01/01 00:45:32;;;;;;;50.15;24.73;;;;;;;3.85;59.40;99079.37;4368739;32;20459;-92
2021/01/01 00:47:57;;;;;;;38.78;22.13;;;;;;;4.03;59.40;99079.97;4368431;32;20174;-92
2021/01/01 00:50:23;;;;;;;43.40;22.00;;;;;;;3.82;59.39;99076.84;4368209;32;20476;-92
2021/01/01 00:52:48;;;;;;;41.60;21.55;;;;;;;3.75;59.38;99080.38;4355925;32;20109;-93
2021/01/01 00:55:13;;;;;;;41.63;23.08;;;;;;;3.81;59.39;99080.28;4367481;32;31002;-90
2021/01/01 00:57:39;;;;;;;41.33;20.58;;;;;;;3.62;59.38;99081.44;4367844;32;20405;-90
2021/01/01 01:00:06;;;;;;;42.17;21.23;;;;;;;3.65;59.38;99076.25;4355626;32;27002;-93
2021/01/01 01:02:32;;;;;;;44.00;23.25;;;;;;;3.59;59.38;99082.34;4368040;32;20117;-90
2021/01/01 01:04:57;;;;;;;39.55;23.30;;;;;;;3.65;59.38;99078.81;4380858;32;20130;-90
2021/01/01 01:07:23;;;;;;;40.35;22.60;;;;;;;3.74;59.38;99083.81;4355464;32;25682;-90
2021/01/01 01:09:49;;;;;;;48.45;24.05;;;;;;;3.77;59.39;99083.75;4356914;32;28783;-92
2021/01/01 01:12:14;;;;;;;47.72;24.37;;;;;;;3.59;59.38;99081.50;4368514;32;20135;-91
2021/01/01 01:14:40;;;;;;;43.58;23.52;;;;;;;3.49;59.38;99083.31;4367194;32;28529;-92
2021/01/01 01:17:07;;;;;;;42.70;21.83;;;;;;;3.49;59.37;99085.03;4356060;32;20141;-92
2021/01/01 01:19:32;;;;;;;47.35;22.48;;;;;;;3.65;59.38;99077.09;4356179;32;20187;-91
2021/01/01 01:21:57;;;;;;;46.08;23.00;;;;;;;3.46;59.38;99093.66;4366273;32;30244;-91
2021/01/01 01:24:23;;;;;;;40.78;22.15;;;;;;;3.38;59.36;99080.91;4355634;32;21081;-93
2021/01/01 01:26:48;;;;;;;44.22;21.27;;;;;;;3.67;59.38;99082.22;4368700;32;20149;-92
2021/01/01 01:29:13;;;;;;;37.83;20.90;;;;;;;3.36;59.36;99090.38;4355857;32;22049;-91
2021/01/01 01:31:39;;;;;;;40.15;20.85;;;;;;;3.33;59.37;99085.28;4368367;32;21372;-92
2021/01/01 01:34:05;;;;;;;39.47;21.12;;;;;;;3.44;59.37;99090.25;4380818;32;20116;-93
2021/01/01 01:36:31;;;;;;;45.55;20.35;;;;;;;3.55;59.38;99083.25;4368693;32;20154;-93
2021/01/01 01:38:56;;;;;;;36.28;19.05;;;;;;;3.55;59.38;99090.97;4368324;32;21436;-92
2021/01/01 01:41:22;;;;;;;36.22;19.05;;;;;;;3.56;59.38;99094.41;4356189;32;20116;-93
2021/01/01 01:43:47;;;;;;;35.45;19.70;;;;;;;3.59;59.38;99102.06;4355478;32;26981;-93
2021/01/01 01:46:12;;;;;;;36.22;20.27;;;;;;;3.45;59.37;99107.41;4368472;32;20106;-92
2021/01/01 01:48:38;;;;;;;39.88;20.17;;;;;;;3.72;59.39;99100.16;4355878;32;20158;-93
2021/01/01 01:51:04;;;;;;;38.78;19.42;;;;;;;3.78;59.39;99102.63;4355916;32;20094;-93
2021/01/01 01:53:34;;;;;;;37.50;19.37;;;;;;;3.65;59.38;99107.13;4355842;32;20479;-93
2021/01/01 01:55:59;;;;;;;39.30;19.27;;;;;;;3.70;59.39;99105.34;4356280;32;20130;-92
2021/01/01 01:58:25;;;;;;;39.22;19.77;;;;;;;3.67;59.38;99102.81;4355488;32;22592;-92
2021/01/01 02:00:59;;;;;;;39.67;20.65;;;;;;;3.85;59.40;99112.00;4355309;32;31239;-93
2021/01/01 02:03:28;;;;;;;38.65;19.12;;;;;;;3.94;59.40;99115.25;4369832;32;20086;-94
2021/01/01 02:05:54;;;;;;;35.20;19.40;;;;;;;3.78;59.39;99111.19;4369486;32;20103;-94
2021/01/01 02:08:23;;;;;;;35.05;18.20;;;;;;;3.75;59.38;99111.25;4358289;32;20140;-95
2021/01/01 02:10:50;;;;;;;33.15;18.00;;;;;;;3.85;59.40;99115.41;4358353;32;20128;-95
2021/01/01 02:13:15;;;;;;;33.25;17.08;;;;;;;3.81;59.39;99111.19;4358464;32;20102;-95
2021/01/01 02:15:41;;;;;;;29.48;16.05;;;;;;;3.73;59.39;99113.00;4354835;32;20101;-95
2021/01/01 02:18:08;;;;;;;31.83;17.62;;;;;;;3.72;59.39;99115.59;4371975;32;20125;-96
2021/01/01 02:20:34;;;;;;;32.47;16.95;;;;;;;3.69;59.39;99119.91;4369933;32;20090;-94
2021/01/01 02:23:02;;;;;;;33.67;18.50;;;;;;;3.60;59.38;99121.78;4358001;32;20113;-93
2021/01/01 02:25:28;;;;;;;32.50;17.52;;;;;;;3.67;59.38;99119.09;4368164;32;20102;-94
2021/01/01 02:27:53;;;;;;;31.90;16.55;;;;;;;3.50;59.37;99123.63;4355966;32;20164;-93
2021/01/01 02:30:19;;;;;;;32.80;16.75;;;;;;;3.65;59.38;99107.13;4355986;32;20169;-92
2021/01/01 02:32:44;;;;;;;29.17;16.77;;;;;;;3.68;59.38;99104.50;4357217;32;20086;-92
2021/01/01 02:35:11;;;;;;;35.47;17.98;;;;;;;3.49;59.37;99106.47;4370790;32;20145;-95
2021/01/01 02:37:37;;;;;;;31.20;16.90;;;;;;;3.31;59.37;99107.59;4376310;32;20106;-94
2021/01/01 02:40:04;;;;;;;29.33;15.98;;;;;;;3.39;59.37;99107.50;4358284;32;20129;-94
2021/01/01 02:42:30;;;;;;;33.80;15.70;;;;;;;3.34;59.37;99110.13;4358909;32;20073;-95
2021/01/01 02:44:56;;;;;;;28.42;14.93;;;;;;;3.43;59.37;99100.56;4371311;32;20133;-95
2021/01/01 02:47:21;;;;;;;34.10;16.27;;;;;;;3.43;59.37;99108.28;4370733;32;20133;-95
2021/01/01 02:49:46;;;;;;;31.62;16.23;;;;;;;3.36;59.36;99110.09;4371376;32;20110;-95
2021/01/01 02:52:12;;;;;;;31.42;15.38;;;;;;;3.30;59.36;99113.59;4360322;32;20138;-94
2021/01/01 02:54:37;;;;;;;31.50;16.70;;;;;;;3.31;59.37;99112.75;4384072;32;20146;-95
2021/01/01 02:57:03;;;;;;;32.38;15.85;;;;;;;3.29;59.36;99111.88;4367006;32;148640;-94
2021/01/01 02:59:29;;;;;;;32.50;15.20;;;;;;;3.37;59.36;99114.38;4372320;32;20474;-96
2021/01/01 03:01:54;;;;;;;31.92;15.23;;;;;;;3.34;59.37;99110.13;4372763;32;20078;-95
2021/01/01 03:04:20;;;;;;;32.60;15.38;;;;;;;3.63;59.39;99107.16;4372813;32;20132;-95
2021/01/01 03:06:45;;;;;;;27.95;15.52;;;;;;;3.44;59.37;99107.41;4360396;32;20102;-94
2021/01/01 03:09:11;;;;;;;29.27;13.90;;;;;;;3.47;59.38;99104.81;4361089;32;20166;-95
2021/01/01 03:11:37;;;;;;;23.98;13.00;;;;;;;3.24;59.35;99105.09;4372271;32;20094;-96
2021/01/01 03:14:02;;;;;;;26.67;13.38;;;;;;;3.35;59.36;99101.53;4360376;32;20106;-94
2021/01/01 03:16:28;;;;;;;27.60;13.80;;;;;;;3.37;59.36;99098.94;4373198;32;20130;-95
2021/01/01 03:18:53;;;;;;;26.87;14.02;;;;;;;3.29;59.36;99100.75;4375053;32;20090;-96
2021/01/01 03:21:20;;;;;;;29.50;14.07;;;;;;;3.10;59.36;99101.87;4360324;32;20130;-94
2021/01/01 03:23:48;;;;;;;26.85;14.73;;;;;;;3.11;59.36;99101.84;4363663;32;20071;-95
2021/01/01 03:26:14;;;;;;;29.77;13.13;;;;;;;3.27;59.37;99103.34;4391381;32;20075;-96
2021/01/01 03:28:42;;;;;;;22.58;12.82;;;;;;;3.34;59.37;99106.72;4390200;32;20490;-95
2021/01/01 03:31:14;;;;;;;23.80;12.57;;;;;;;3.23;59.35;99104.25;4363131;32;20085;-95
2021/01/01 03:33:39;;;;;;;23.25;12.82;;;;;;;3.08;59.35;99101.91;4374113;32;20086;-95
2021/01/01 03:36:05;;;;;;;21.95;12.82;;;;;;;3.10;59.35;99100.16;4371014;32;20109;-95
2021/01/01 03:38:32;;;;;;;24.70;12.18;;;;;;;3.11;59.35;99106.16;4364530;32;20095;-95
2021/01/01 03:41:23;;;;;;;25.08;12.32;;;;;;;3.17;59.36;99106.91;4391472;32;20067;-96
2021/01/01 03:43:50;;;;;;;22.60;11.93;;;;;;;3.00;59.34;99108.81;4384783;32;20365;-96
2021/01/01 03:46:15;;;;;;;22.23;11.85;;;;;;;3.05;59.35;99109.63;4362047;32;20092;-94
2021/01/01 03:48:44;;;;;;;22.15;11.68;;;;;;;3.02;59.35;99102.78;4375841;32;20134;-96
2021/01/01 03:51:11;;;;;;;22.40;11.55;;;;;;;2.96;59.35;99107.16;4374775;32;20092;-96
2021/01/01 03:53:38;;;;;;;18.15;10.85;;;;;;;3.01;59.34;99101.09;4374371;32;20099;-96
2021/01/01 03:56:03;;;;;;;19.87;11.43;;;;;;;2.80;59.34;99109.06;4388871;32;20106;-96
2021/01/01 03:58:30;;;;;;;25.98;12.55;;;;;;;2.78;59.33;99114.22;4361634;32;20109;-96
2021/01/01 04:00:58;;;;;;;23.10;11.10;;;;;;;2.77;59.33;99109.94;4362202;32;20098;-94
2021/01/01 04:03:24;;;;;;;23.98;11.57;;;;;;;2.89;59.34;99114.09;4358926;32;20130;-95
2021/01/01 04:05:50;;;;;;;24.33;11.23;;;;;;;2.78;59.33;99115.94;4358339;32;20106;-95
2021/01/01 04:08:48;;;;;;;22.98;12.02;;;;;;;2.64;59.33;99118.66;4370936;32;20772;-96
2021/01/01 04:11:38;;;;;;;21.98;11.32;;;;;;;2.75;59.33;99114.25;4408071;32;20112;-96
2021/01/01 04:14:09;;;;;;;23.85;12.20;;;;;;;2.78;59.33;99128.78;4394270;32;20082;-96
2021/01/01 04:16:45;;;;;;;23.33;12.55;;;;;;;2.81;59.34;99120.19;4394063;32;20070;-96
2021/01/01 04:19:21;;;;;;;23.00;11.85;;;;;;;2.94;59.34;99126.91;4393507;32;20163;-96
2021/01/01 04:21:51;;;;;;;26.12;12.68;;;;;;;2.84;59.34;99127.84;4392329;32;20117;-96
2021/01/01 04:24:49;;;;;;;24.63;11.68;;;;;;;2.80;59.33;99123.63;4382435;32;20093;-96
2021/01/01 04:27:20;;;;;;;22.52;10.93;;;;;;;2.78;59.33;99121.91;4385113;32;20082;-96
2021/01/01 04:29:48;;;;;;;21.73;11.88;;;;;;;2.75;59.33;99114.25;4390857;32;20090;-96
2021/01/01 04:32:16;;;;;;;27.67;12.50;;;;;;;2.88;59.34;99119.28;4392174;32;20077;-96
2021/01/01 04:34:42;;;;;;;23.40;13.27;;;;;;;2.74;59.33;99116.84;4377432;32;20091;-96
2021/01/01 04:37:10;;;;;;;28.92;15.52;;;;;;;2.86;59.33;99128.72;4376800;32;20132;-96
2021/01/01 04:39:35;;;;;;;54.47;21.05;;;;;;;2.96;59.35;99120.88;4362733;32;20081;-96
2021/01/01 04:42:01;;;;;;;74.12;26.62;;;;;;;3.11;59.36;99125.00;4373386;32;20098;-94
2021/01/01 04:44:26;;;;;;;41.10;17.90;;;;;;;2.68;59.33;99122.91;4358580;32;20110;-94
2021/01/01 04:46:52;;;;;;;27.58;13.68;;;;;;;2.68;59.33;99142.59;4357888;32;20103;-94
2021/01/01 04:49:18;;;;;;;24.87;13.02;;;;;;;2.78;59.33;99136.50;4358774;32;20147;-95
2021/01/01 04:51:44;;;;;;;90.12;32.83;;;;;;;2.70;59.33;99143.44;4372570;32;20489;-96
2021/01/01 04:54:12;;;;;;;149.85;48.85;;;;;;;2.60;59.32;99150.41;4359185;32;20107;-96
2021/01/01 04:56:47;;;;;;;58.72;22.00;;;;;;;2.73;59.33;99143.41;4359122;32;20070;-96
2021/01/01 04:59:16;;;;;;;23.60;11.88;;;;;;;2.52;59.32;99147.03;4360717;32;20098;-95
2021/01/01 05:01:43;;;;;;;23.80;12.07;;;;;;;2.85;59.34;99143.28;4362761;32;20067;-96
2021/01/01 05:04:15;;;;;;;33.35;17.62;;;;;;;3.14;59.35;99145.53;4387836;32;20170;-96
2021/01/01 05:06:44;;;;;;;27.10;14.95;;;;;;;3.02;59.35;99143.94;4373897;32;20169;-96
2021/01/01 05:09:12;;;;;;;27.20;14.52;;;;;;;2.73;59.34;99148.53;4360840;32;20103;-96
2021/01/01 05:11:38;;;;;;;24.00;12.45;;;;;;;2.64;59.33;99152.06;4361332;32;20081;-96
2021/01/01 05:14:05;;;;;;;27.55;14.13;;;;;;;2.59;59.32;99148.66;4376641;32;20720;-96
2021/01/01 05:16:31;;;;;;;26.08;12.85;;;;;;;2.59;59.32;99155.53;4366398;32;20110;-95
2021/01/01 05:18:56;;;;;;;24.08;13.52;;;;;;;2.70;59.33;99154.56;4376060;32;20077;-96
2021/01/01 05:21:26;;;;;;;22.98;12.57;;;;;;;2.71;59.33;99158.00;4362197;32;20095;-95
2021/01/01 05:23:54;;;;;;;33.35;15.77;;;;;;;2.68;59.33;99163.16;4362186;32;20066;-96
2021/01/01 05:26:20;;;;;;;37.97;23.12;;;;;;;2.66;59.33;99168.31;4374188;32;20113;-95
2021/01/01 05:28:48;;;;;;;29.95;17.67;;;;;;;2.56;59.32;99168.41;4364979;32;20120;-95
2021/01/01 05:31:21;;;;;;;27.87;15.25;;;;;;;2.53;59.32;99169.28;4391832;32;20118;-96
2021/01/01 05:34:07;;;;;;;22.85;12.30;;;;;;;2.50;59.32;99174.44;4366105;32;20824;-95
2021/01/01 05:36:45;;;;;;;25.90;14.52;;;;;;;2.50;59.31;99168.47;4384347;32;20502;-96
2021/01/01 05:39:13;;;;;;;23.95;13.45;;;;;;;2.41;59.31;99171.97;4371660;32;20153;-96
2021/01/01 05:41:40;;;;;;;22.85;12.52;;;;;;;2.34;59.30;99178.00;4386304;32;20112;-96
2021/01/01 05:44:36;;;;;;;22.40;12.30;;;;;;;2.47;59.31;99169.34;4368093;32;20063;-95
2021/01/01 05:47:08;;;;;;;24.80;12.05;;;;;;;2.41;59.31;99172.81;4392572;32;20125;-95
2021/01/01 05:49:47;;;;;;;21.15;12.00;;;;;;;2.40;59.31;99167.69;4393607;32;20121;-96
2021/01/01 05:52:30;;;;;;;24.23;13.25;;;;;;;2.39;59.31;99166.84;4395402;32;20055;-95
2021/01/01 05:54:59;;;;;;;23.98;13.65;;;;;;;2.45;59.32;99166.78;4380195;32;20102;-96
2021/01/01 05:57:33;;;;;;;25.23;12.50;;;;;;;2.37;59.31;99178.00;4360973;32;20074;-96
2021/01/01 06:00:03;;;;;;;19.20;11.02;;;;;;;2.25;59.30;99173.81;4360893;32;20880;-96
2021/01/01 06:02:28;;;;;;;21.48;12.07;;;;;;;2.36;59.32;99178.84;4377265;32;20114;-95
2021/01/01 06:04:54;;;;;;;22.30;11.35;;;;;;;2.31;59.31;99181.44;4362848;32;20122;-96
2021/01/01 06:07:20;;;;;;;18.17;10.70;;;;;;;2.31;59.31;99184.03;4360727;32;20098;-95
2021/01/01 06:09:46;;;;;;;17.52;9.85;;;;;;;2.32;59.31;99184.87;4364072;32;20054;-96
2021/01/01 06:12:14;;;;;;;20.05;9.75;;;;;;;2.26;59.31;99187.50;4374580;32;20105;-96
2021/01/01 06:14:47;;;;;;;19.35;10.15;;;;;;;2.26;59.30;99190.06;4386576;32;20106;-95
2021/01/01 06:17:23;;;;;;;17.52;9.35;;;;;;;2.20;59.30;99195.25;4378109;32;20253;-96
2021/01/01 06:19:56;;;;;;;20.48;9.85;;;;;;;2.31;59.31;99193.44;4393640;32;20073;-96
2021/01/01 06:22:36;;;;;;;18.08;9.60;;;;;;;2.17;59.30;99202.97;4379009;32;20071;-96
2021/01/01 06:25:21;;;;;;;18.25;9.95;;;;;;;2.12;59.30;99201.25;4391222;32;20118;-96
2021/01/01 06:27:47;;;;;;;18.58;10.00;;;;;;;2.15;59.30;99195.28;4375234;32;20161;-92
2021/01/01 06:30:13;;;;;;;20.17;9.57;;;;;;;2.15;59.30;99203.00;4357284;32;20090;-95
2021/01/01 06:32:38;;;;;;;16.17;8.75;;;;;;;2.05;59.29;99209.03;4381854;32;20090;-91
2021/01/01 06:35:13;;;;;;;22.10;10.35;;;;;;;2.06;59.29;99205.59;4384233;32;20106;-93
2021/01/01 06:37:49;;;;;;;18.52;10.23;;;;;;;2.08;59.29;99214.13;4382599;32;20110;-93
2021/01/01 06:40:20;;;;;;;21.48;9.95;;;;;;;2.08;59.29;99207.28;4356272;32;20086;-93
2021/01/01 06:42:56;;;;;;;16.98;9.70;;;;;;;2.13;59.30;99212.41;4381010;32;20091;-92
2021/01/01 06:45:39;;;;;;;17.00;9.55;;;;;;;2.22;59.30;99214.06;4356191;32;20838;-93
2021/01/01 06:48:11;;;;;;;20.23;9.65;;;;;;;2.26;59.30;99221.72;4356392;32;20176;-93
2021/01/01 06:50:48;;;;;;;20.30;10.10;;;;;;;2.12;59.29;99213.25;4380567;32;20097;-93
2021/01/01 06:53:15;;;;;;;18.67;9.77;;;;;;;2.11;59.30;99220.09;4356846;32;20090;-93
2021/01/01 06:55:42;;;;;;;17.08;9.65;;;;;;;2.18;59.30;99227.78;4356073;32;20067;-93
2021/01/01 06:58:11;;;;;;;26.37;11.27;;;;;;;2.13;59.30;99236.38;4357656;32;20102;-94
2021/01/01 07:00:49;;;;;;;19.80;10.80;;;;;;;2.11;59.30;99239.78;4351681;32;20126;-93
2021/01/01 07:03:33;;;;;;;19.77;10.07;;;;;;;2.05;59.29;99242.41;4365685;32;20070;-95
2021/01/01 07:06:10;;;;;;;21.23;10.63;;;;;;;2.09;59.29;99252.63;4373482;32;20129;-94
2021/01/01 07:08:43;;;;;;;20.67;11.10;;;;;;;2.01;59.29;99246.72;4373387;32;20064;-96
2021/01/01 07:11:09;;;;;;;19.37;10.23;;;;;;;2.01;59.29;99244.13;4369398;32;20091;-96
2021/01/01 07:13:44;;;;;;;18.83;10.63;;;;;;;2.04;59.29;99253.53;4364583;32;20123;-95
2021/01/01 07:16:10;;;;;;;22.35;10.88;;;;;;;2.24;59.31;99255.97;4351271;32;20103;-94
2021/01/01 07:18:36;;;;;;;23.70;11.75;;;;;;;2.12;59.29;99247.47;4358190;32;20142;-93
2021/01/01 07:21:05;;;;;;;27.15;11.50;;;;;;;2.19;59.30;99248.31;4353662;32;20105;-95
2021/01/01 07:23:31;;;;;;;22.23;12.05;;;;;;;2.14;59.30;99245.78;4359895;32;20121;-94
2021/01/01 07:25:56;;;;;;;20.30;11.00;;;;;;;2.18;59.30;99244.03;4342272;32;20106;-95
2021/01/01 07:28:22;;;;;;;20.75;10.60;;;;;;;2.32;59.31;99246.50;4359527;32;20125;-94
2021/01/01 07:30:48;;;;;;;20.37;11.00;;;;;;;2.43;59.32;99255.00;4354793;32;20083;-93
2021/01/01 07:33:34;;;;;;;21.95;12.60;;;;;;;2.67;59.33;99247.09;4352746;32;20651;-91
2021/01/01 07:36:04;;;;;;;22.13;12.05;;;;;;;2.70;59.33;99254.78;4380988;32;20115;-96
2021/01/01 07:38:31;;;;;;;28.40;13.98;;;;;;;2.77;59.33;99253.00;4356052;32;20106;-95
2021/01/01 07:40:58;;;;;;;50.00;18.10;;;;;;;3.02;59.35;99262.19;4357059;32;20054;-95
2021/01/01 07:43:24;;;;;;;61.80;19.55;;;;;;;3.17;59.36;99260.34;4355047;32;20095;-96
2021/01/01 07:45:53;;;;;;;46.30;18.73;;;;;;;3.35;59.36;99255.88;4355046;32;20535;-94
2021/01/01 07:48:18;;;;;;;60.70;18.05;;;;;;;3.26;59.36;99258.53;4356357;32;20133;-94
2021/01/01 07:50:44;;;;;;;62.53;18.80;;;;;;;3.18;59.36;99257.78;4354637;32;21917;-96
2021/01/01 07:53:10;;;;;;;107.47;25.02;;;;;;;3.50;59.37;99257.41;4356627;32;20099;-94
2021/01/01 07:55:36;;;;;;;86.68;20.60;;;;;;;3.48;59.38;99245.44;4353705;32;20075;-96
2021/01/01 07:58:18;;;;;;;52.60;17.73;;;;;;;3.49;59.37;99258.28;4363220;32;20055;-96
2021/01/01 08:00:46;;;;;;;78.35;18.85;;;;;;;3.97;59.41;99254.25;4392626;32;20095;-94
2021/01/01 08:03:13;;;;;;;70.18;17.65;;;;;;;3.99;59.40;99260.22;4361221;32;20120;-94
2021/01/01 08:05:42;;;;;;;103.57;21.30;;;;;;;4.10;59.41;99259.25;4371949;32;20090;-95
2021/01/01 08:08:27;;;;;;;78.35;18.65;;;;;;;3.91;59.40;99272.38;4374550;32;20062;-95
2021/01/01 08:11:38;;;;;;;63.78;18.87;;;;;;;3.93;59.40;99270.63;4383253;32;20054;-96
2021/01/01 08:14:12;;;;;;;51.97;17.95;;;;;;;4.01;59.40;99268.78;4408996;32;20046;-95
2021/01/01 08:16:38;;;;;;;58.00;20.48;;;;;;;4.02;59.40;99279.94;4406642;32;20101;-93
2021/01/01 08:19:04;;;;;;;83.45;21.08;;;;;;;4.20;59.40;99273.69;4387969;32;20493;-93
2021/01/01 08:21:31;;;;;;;98.37;25.48;;;;;;;4.14;59.41;99282.38;4371355;32;20149;-93
2021/01/01 08:23:56;;;;;;;121.13;23.42;;;;;;;4.15;59.41;99278.91;4359277;32;20086;-93
2021/01/01 08:26:22;;;;;;;105.65;22.55;;;;;;;4.38;59.43;99285.47;4384549;32;20256;-93
2021/01/01 08:28:51;;;;;;;106.55;24.35;;;;;;;4.43;59.43;99287.09;4358828;32;20934;-93
2021/01/01 08:31:18;;;;;;;101.97;22.00;;;;;;;4.43;59.43;99288.81;4358564;32;20494;-95
2021/01/01 08:33:43;;;;;;;62.33;23.67;;;;;;;4.59;59.44;99286.00;4358199;32;20090;-94
2021/01/01 08:36:10;;;;;;;44.45;21.37;;;;;;;4.54;59.43;99289.53;4357125;32;26567;-94
2021/01/01 08:38:36;;;;;;;170.87;28.62;;;;;;;4.82;59.46;99290.81;4358006;32;20770;-93
2021/01/01 08:41:02;;;;;;;148.95;26.55;;;;;;;4.77;59.44;99290.03;4358313;32;20135;-93
2021/01/01 08:43:29;;;;;;;55.78;25.67;;;;;;;4.80;59.45;99294.28;4358283;32;20122;-94
2021/01/01 08:45:54;;;;;;;93.10;27.35;;;;;;;4.82;59.45;99290.81;4357993;32;20119;-93
2021/01/01 08:48:20;;;;;;;74.00;26.95;;;;;;;5.11;59.47;99295.47;4357645;32;21672;-95
2021/01/01 08:50:49;;;;;;;92.10;31.30;;;;;;;5.08;59.46;99292.94;4357127;32;20901;-93
2021/01/01 08:53:15;;;;;;;92.37;30.00;;;;;;;5.05;59.46;99289.56;4382376;32;20221;-93
2021/01/01 08:55:41;;;;;;;59.40;26.25;;;;;;;5.02;59.46;99293.06;4357670;32;20083;-93
2021/01/01 08:58:16;;;;;;;57.20;24.92;;;;;;;5.17;59.47;99300.53;4357594;32;20106;-93
2021/01/01 09:01:04;;;;;;;60.17;28.35;;;;;;;5.30;59.47;99308.91;4369906;32;20152;-94
2021/01/01 09:03:29;;;;;;;52.92;27.87;;;;;;;5.06;59.46;99305.03;4384882;32;20427;-92
2021/01/01 09:05:55;;;;;;;54.47;27.25;;;;;;;4.98;59.45;99309.47;4357200;32;23767;-93
2021/01/01 09:08:25;;;;;;;54.05;25.88;;;;;;;5.14;59.46;99307.47;4356924;32;22621;-94
2021/01/01 09:10:52;;;;;;;;;;;;;;;5.39;59.49;99313.03;4358049;32;20081;-95
2021/01/01 09:13:30;;;;;;;51.15;25.50;;;;;;;5.38;59.48;99312.19;4370146;32;19958;-94
2021/01/01 09:16:03;;;;;;;50.05;24.50;;;;;;;5.50;59.49;99314.56;4382294;32;20137;-94
2021/01/01 09:18:28;;;;;;;38.95;19.77;;;;;;;5.34;59.47;99315.72;4356716;32;20128;-93
2021/01/01 09:21:14;;;;;;;38.42;22.15;;;;;;;5.47;59.49;99317.22;4356347;32;20087;-95
2021/01/01 09:23:41;;;;;;;35.72;19.17;;;;;;;5.51;59.49;99318.84;4370150;32;20085;-93
2021/01/01 09:26:06;;;;;;;35.42;18.70;;;;;;;5.63;59.50;99311.75;4369803;32;20102;-94
2021/01/01 09:28:33;;;;;;;35.53;19.37;;;;;;;5.59;59.49;99310.94;4381333;32;20153;-94
2021/01/01 09:30:58;;;;;;;33.17;17.45;;;;;;;5.73;59.49;99303.81;4369539;32;20240;-93
2021/01/01 09:33:24;;;;;;;28.73;17.37;;;;;;;5.71;59.50;99296.97;4356939;32;20163;-93
2021/01/01 09:35:50;;;;;;;31.10;17.55;;;;;;;5.68;59.50;99300.47;4356833;32;20106;-94
2021/01/01 09:38:15;;;;;;;31.58;17.17;;;;;;;5.75;59.49;99301.19;4356838;32;20169;-93
2021/01/01 09:40:41;;;;;;;29.60;17.37;;;;;;;5.92;59.51;99303.47;4357198;32;20103;-95
2021/01/01 09:43:06;;;;;;;27.00;16.60;;;;;;;5.94;59.51;99304.28;4368316;32;20097;-92
2021/01/01 09:45:32;;;;;;;28.17;16.87;;;;;;;5.90;59.50;99305.22;4356285;32;20144;-94
2021/01/01 09:47:58;;;;;;;23.08;14.48;;;;;;;6.17;59.52;99294.34;4357966;32;20114;-93
2021/01/01 09:50:23;;;;;;;28.52;16.15;;;;;;;6.15;59.52;99298.66;4357168;32;20138;-95
2021/01/01 09:52:49;;;;;;;27.55;15.07;;;;;;;6.18;59.52;99296.03;4369252;32;20138;-93
2021/01/01 09:55:14;;;;;;;29.00;15.95;;;;;;;6.12;59.52;99299.56;4368827;32;20102;-93
2021/01/01 09:57:40;;;;;;;30.35;15.75;;;;;;;6.14;59.52;99291.78;4354892;32;20174;-92
2021/01/01 10:00:10;;;;;;;29.42;15.70;;;;;;;6.06;59.52;99288.53;4356620;32;20177;-93
2021/01/01 10:02:35;;;;;;;26.80;15.55;;;;;;;6.42;59.54;99295.50;4356340;32;20098;-93
2021/01/01 10:05:01;;;;;;;32.88;16.90;;;;;;;6.29;59.53;99288.03;4355816;32;20153;-91
2021/01/01 10:07:27;;;;;;;29.35;16.30;;;;;;;6.15;59.52;99291.78;4355888;32;20133;-92
2021/01/01 10:09:52;;;;;;;27.27;15.68;;;;;;;6.36;59.54;99287.00;4355322;32;20160;-93
2021/01/01 10:12:18;;;;;;;26.62;15.30;;;;;;;6.62;59.54;99286.41;4355672;32;20087;-91
2021/01/01 10:14:44;;;;;;;21.02;13.68;;;;;;;6.81;59.56;99279.91;4355233;32;20138;-91
2021/01/01 10:17:09;;;;;;;25.60;14.73;;;;;;;6.96;59.57;99283.87;4365081;32;29017;-91
2021/01/01 10:19:41;;;;;;;25.77;14.73;;;;;;;7.02;59.57;99281.97;4352448;32;20403;-90
2021/01/01 10:22:07;;;;;;;34.67;19.75;;;;;;;7.19;59.58;99285.88;4355385;32;20451;-95
2021/01/01 10:24:33;;;;;;;18.52;11.18;;;;;;;7.30;59.58;99276.09;4367336;32;20078;-93
2021/01/01 10:26:58;;;;;;;21.30;12.15;;;;;;;7.63;59.61;99275.19;4354973;32;20105;-92
2021/01/01 10:29:24;;;;;;;21.55;12.73;;;;;;;7.59;59.60;99273.59;4365532;32;30759;-96
2021/01/01 10:31:49;;;;;;;17.65;10.88;;;;;;;7.64;59.61;99276.03;4368307;32;20110;-93
2021/01/01 10:34:15;;;;;;;22.70;12.68;;;;;;;7.62;59.61;99270.91;4366555;32;20122;-93
2021/01/01 10:36:41;;;;;;;23.70;15.88;;;;;;;7.58;59.60;99271.88;4368735;32;20102;-96
2021/01/01 10:39:07;;;;;;;33.03;19.08;;;;;;;7.83;59.61;99266.03;4369139;32;20110;-96
2021/01/01 10:41:33;;;;;;;28.33;14.55;;;;;;;7.81;59.61;99268.66;4356367;32;20133;-95
2021/01/01 10:43:58;;;;;;;16.37;10.55;;;;;;;8.04;59.62;99274.88;4355730;32;20413;-95
2021/01/01 10:46:24;;;;;;;20.17;12.65;;;;;;;8.06;59.62;99263.63;4354415;32;20102;-95
2021/01/01 10:48:49;;;;;;;18.60;13.20;;;;;;;8.21;59.63;99262.28;4356294;32;20152;-93
2021/01/01 10:51:34;;;;;;;19.55;10.48;;;;;;;8.34;59.64;99263.66;4358336;32;20168;-95
2021/01/01 10:54:03;;;;;;;18.42;10.43;;;;;;;8.57;59.65;99255.16;4399357;32;20107;-96
2021/01/01 10:56:29;;;;;;;16.65;9.80;;;;;;;8.53;59.66;99256.16;4367765;32;20117;-90
2021/01/01 10:58:54;;;;;;;16.58;10.68;;;;;;;8.53;59.66;99257.00;4354397;32;20114;-90
2021/01/01 11:01:20;;;;;;;21.27;13.82;;;;;;;8.51;59.66;99247.53;4354568;32;20145;-91
2021/01/01 11:03:46;;;;;;;20.45;11.07;;;;;;;8.60;59.66;99242.94;4356182;32;20098;-90
2021/01/01 11:06:12;;;;;;;19.65;11.60;;;;;;;8.68;59.66;99245.28;4370535;32;20376;-94
2021/01/01 11:08:41;;;;;;;19.95;12.75;;;;;;;8.48;59.65;99242.47;4358069;32;20464;-94
2021/01/01 11:11:07;;;;;;;20.08;11.45;;;;;;;8.59;59.66;99238.66;4357749;32;20075;-93
2021/01/01 11:13:32;;;;;;;20.65;13.05;;;;;;;8.56;59.65;99243.09;4357611;32;20137;-94
2021/01/01 12:27:01;;;;;;;23.70;13.15;;;;;;;8.63;59.66;99244.59;4367172;32;20121;-90
2021/01/01 12:29:27;;;;;;;21.98;12.82;;;;;;;8.76;59.67;99242.44;4354304;32;20260;-89
2021/01/01 12:31:52;;;;;;;21.37;12.55;;;;;;;8.79;59.66;99240.59;4353983;32;20114;-91
2021/01/01 12:34:17;;;;;;;19.52;11.52;;;;;;;8.83;59.67;99244.78;4354621;32;20123;-90
2021/01/01 12:36:43;;;;;;;22.52;12.68;;;;;;;8.67;59.66;99246.16;4354333;32;24755;-91
2021/01/01 12:39:08;;;;;;;18.55;10.70;;;;;;;8.46;59.65;99254.63;4353820;32;20650;-91
2021/01/01 12:41:34;;;;;;;15.95;10.00;;;;;;;8.56;59.65;99243.94;4353808;32;20145;-89
2021/01/01 12:43:59;;;;;;;16.98;9.63;;;;;;;8.48;59.65;99256.28;4353890;32;20185;-89